sensor_id;sensor_type;location;lat;lon;timestamp;P1;durP1;ratioP1;P2;durP2;ratioP2
77018;SDS011;66044;53.142;17.962;2023-12-20T00:00:26;5.10;;;2.00;;
77018;SDS011;66044;53.142;17.962;2023-12-20T00:03:12;6.10;;;2.00;;
77018;SDS011;66044;53.142;17.962;2023-12-20T00:05:39;5.90;;;2.10;;
77018;SDS011;66044;53.142;17.962;2023-12-20T00:08:07;5.70;;;1.80;;
77018;SDS011;66044;53.142;17.962;2023-12-20T00:10:33;5.00;;;1.60;;
77018;SDS011;66044;53.142;17.962;2023-12-20T00:13:00;5.40;;;1.90;;
77018;SDS011;66044;53.142;17.962;2023-12-20T00:15:26;4.60;;;1.50;;
77018;SDS011;66044;53.142;17.962;2023-12-20T00:17:53;4.90;;;1.80;;
77018;SDS011;66044;53.142;17.962;2023-12-20T00:20:19;5.60;;;2.10;;
77018;SDS011;66044;53.142;17.962;2023-12-20T00:22:46;4.10;;;1.40;;
77018;SDS011;66044;53.142;17.962;2023-12-20T00:25:12;5.20;;;1.70;;
77018;SDS011;66044;53.142;17.962;2023-12-20T00:27:39;5.40;;;1.60;;
77018;SDS011;66044;53.142;17.962;2023-12-20T00:30:05;4.80;;;1.60;;
77018;SDS011;66044;53.142;17.962;2023-12-20T00:32:32;4.70;;;1.60;;
77018;SDS011;66044;53.142;17.962;2023-12-20T00:34:59;4.90;;;1.70;;
77018;SDS011;66044;53.142;17.962;2023-12-20T00:37:26;4.60;;;1.40;;
77018;SDS011;66044;53.142;17.962;2023-12-20T00:39:52;4.40;;;1.70;;
77018;SDS011;66044;53.142;17.962;2023-12-20T00:42:19;5.00;;;1.60;;
77018;SDS011;66044;53.142;17.962;2023-12-20T00:44:45;4.80;;;1.80;;
77018;SDS011;66044;53.142;17.962;2023-12-20T00:47:12;4.00;;;1.20;;
77018;SDS011;66044;53.142;17.962;2023-12-20T00:49:39;4.50;;;1.60;;
77018;SDS011;66044;53.142;17.962;2023-12-20T00:52:05;5.00;;;1.80;;
77018;SDS011;66044;53.142;17.962;2023-12-20T00:54:32;4.70;;;1.60;;
77018;SDS011;66044;53.142;17.962;2023-12-20T00:56:58;4.70;;;1.60;;
77018;SDS011;66044;53.142;17.962;2023-12-20T00:59:25;4.50;;;1.70;;
77018;SDS011;66044;53.142;17.962;2023-12-20T01:01:52;5.30;;;1.80;;
77018;SDS011;66044;53.142;17.962;2023-12-20T01:04:18;5.70;;;2.10;;
77018;SDS011;66044;53.142;17.962;2023-12-20T01:06:45;4.60;;;1.50;;
77018;SDS011;66044;53.142;17.962;2023-12-20T01:09:12;6.10;;;2.00;;
77018;SDS011;66044;53.142;17.962;2023-12-20T01:11:38;5.10;;;1.80;;
77018;SDS011;66044;53.142;17.962;2023-12-20T01:14:04;5.30;;;1.90;;
77018;SDS011;66044;53.142;17.962;2023-12-20T01:16:31;5.30;;;1.90;;
77018;SDS011;66044;53.142;17.962;2023-12-20T01:18:57;5.00;;;2.00;;
77018;SDS011;66044;53.142;17.962;2023-12-20T01:21:25;4.90;;;2.10;;
77018;SDS011;66044;53.142;17.962;2023-12-20T01:23:51;5.10;;;1.70;;
77018;SDS011;66044;53.142;17.962;2023-12-20T01:26:18;4.70;;;1.80;;
77018;SDS011;66044;53.142;17.962;2023-12-20T01:28:44;4.70;;;1.80;;
77018;SDS011;66044;53.142;17.962;2023-12-20T01:31:11;4.50;;;1.70;;
77018;SDS011;66044;53.142;17.962;2023-12-20T01:33:37;4.90;;;1.80;;
77018;SDS011;66044;53.142;17.962;2023-12-20T01:36:04;5.00;;;1.50;;
77018;SDS011;66044;53.142;17.962;2023-12-20T01:38:30;4.50;;;1.60;;
77018;SDS011;66044;53.142;17.962;2023-12-20T01:40:57;4.90;;;1.80;;
77018;SDS011;66044;53.142;17.962;2023-12-20T01:43:23;4.60;;;1.70;;
77018;SDS011;66044;53.142;17.962;2023-12-20T01:45:50;5.00;;;1.60;;
77018;SDS011;66044;53.142;17.962;2023-12-20T01:48:16;5.60;;;1.80;;
77018;SDS011;66044;53.142;17.962;2023-12-20T01:50:43;5.80;;;2.00;;
77018;SDS011;66044;53.142;17.962;2023-12-20T01:53:12;5.20;;;2.00;;
77018;SDS011;66044;53.142;17.962;2023-12-20T01:55:39;5.00;;;1.80;;
77018;SDS011;66044;53.142;17.962;2023-12-20T01:58:09;4.80;;;1.60;;
77018;SDS011;66044;53.142;17.962;2023-12-20T02:00:37;5.30;;;1.70;;
77018;SDS011;66044;53.142;17.962;2023-12-20T02:03:04;5.60;;;1.80;;
77018;SDS011;66044;53.142;17.962;2023-12-20T02:05:30;5.70;;;2.00;;
77018;SDS011;66044;53.142;17.962;2023-12-20T02:07:58;6.00;;;2.40;;
77018;SDS011;66044;53.142;17.962;2023-12-20T02:10:24;4.60;;;1.70;;
77018;SDS011;66044;53.142;17.962;2023-12-20T02:12:51;5.10;;;2.00;;
77018;SDS011;66044;53.142;17.962;2023-12-20T02:15:18;5.40;;;1.70;;
77018;SDS011;66044;53.142;17.962;2023-12-20T02:17:45;5.10;;;1.80;;
77018;SDS011;66044;53.142;17.962;2023-12-20T02:20:13;4.20;;;1.50;;
77018;SDS011;66044;53.142;17.962;2023-12-20T02:22:40;5.20;;;2.00;;
77018;SDS011;66044;53.142;17.962;2023-12-20T02:25:07;4.90;;;1.90;;
77018;SDS011;66044;53.142;17.962;2023-12-20T02:27:34;4.90;;;1.70;;
77018;SDS011;66044;53.142;17.962;2023-12-20T02:30:01;4.80;;;1.70;;
77018;SDS011;66044;53.142;17.962;2023-12-20T02:32:27;4.40;;;1.50;;
77018;SDS011;66044;53.142;17.962;2023-12-20T02:34:55;5.10;;;1.60;;
77018;SDS011;66044;53.142;17.962;2023-12-20T02:37:21;5.10;;;1.70;;
77018;SDS011;66044;53.142;17.962;2023-12-20T02:39:48;4.40;;;1.60;;
77018;SDS011;66044;53.142;17.962;2023-12-20T02:42:14;4.60;;;1.60;;
77018;SDS011;66044;53.142;17.962;2023-12-20T02:44:41;4.70;;;1.70;;
77018;SDS011;66044;53.142;17.962;2023-12-20T02:47:07;6.40;;;2.10;;
77018;SDS011;66044;53.142;17.962;2023-12-20T02:49:33;6.60;;;2.30;;
77018;SDS011;66044;53.142;17.962;2023-12-20T02:52:00;5.10;;;1.80;;
77018;SDS011;66044;53.142;17.962;2023-12-20T02:54:26;6.00;;;1.60;;
77018;SDS011;66044;53.142;17.962;2023-12-20T02:56:53;5.80;;;1.60;;
77018;SDS011;66044;53.142;17.962;2023-12-20T02:59:20;6.00;;;1.80;;
77018;SDS011;66044;53.142;17.962;2023-12-20T03:01:47;6.00;;;1.90;;
77018;SDS011;66044;53.142;17.962;2023-12-20T03:04:13;4.60;;;1.40;;
77018;SDS011;66044;53.142;17.962;2023-12-20T03:06:39;4.40;;;1.40;;
77018;SDS011;66044;53.142;17.962;2023-12-20T03:09:06;5.30;;;1.20;;
77018;SDS011;66044;53.142;17.962;2023-12-20T03:11:32;5.50;;;1.90;;
77018;SDS011;66044;53.142;17.962;2023-12-20T03:13:59;7.70;;;2.40;;
77018;SDS011;66044;53.142;17.962;2023-12-20T03:16:25;6.40;;;1.80;;
77018;SDS011;66044;53.142;17.962;2023-12-20T03:18:52;5.30;;;1.60;;
77018;SDS011;66044;53.142;17.962;2023-12-20T03:21:18;4.80;;;1.50;;
77018;SDS011;66044;53.142;17.962;2023-12-20T03:23:45;4.80;;;1.70;;
77018;SDS011;66044;53.142;17.962;2023-12-20T03:26:11;4.80;;;1.50;;
77018;SDS011;66044;53.142;17.962;2023-12-20T03:28:38;4.70;;;1.40;;
77018;SDS011;66044;53.142;17.962;2023-12-20T03:31:04;4.60;;;1.50;;
77018;SDS011;66044;53.142;17.962;2023-12-20T03:33:31;5.30;;;1.40;;
77018;SDS011;66044;53.142;17.962;2023-12-20T03:35:57;4.30;;;1.50;;
77018;SDS011;66044;53.142;17.962;2023-12-20T03:38:23;4.70;;;1.50;;
77018;SDS011;66044;53.142;17.962;2023-12-20T03:40:50;6.90;;;2.20;;
77018;SDS011;66044;53.142;17.962;2023-12-20T03:43:17;6.10;;;1.80;;
77018;SDS011;66044;53.142;17.962;2023-12-20T03:45:43;5.10;;;1.80;;
77018;SDS011;66044;53.142;17.962;2023-12-20T03:48:09;6.20;;;1.80;;
77018;SDS011;66044;53.142;17.962;2023-12-20T03:50:36;5.20;;;1.60;;
77018;SDS011;66044;53.142;17.962;2023-12-20T03:53:03;4.70;;;1.40;;
77018;SDS011;66044;53.142;17.962;2023-12-20T03:55:30;4.60;;;1.20;;
77018;SDS011;66044;53.142;17.962;2023-12-20T03:57:56;5.20;;;1.50;;
77018;SDS011;66044;53.142;17.962;2023-12-20T04:00:22;5.70;;;2.00;;
77018;SDS011;66044;53.142;17.962;2023-12-20T04:02:49;4.90;;;1.20;;
77018;SDS011;66044;53.142;17.962;2023-12-20T04:05:15;4.90;;;1.60;;
77018;SDS011;66044;53.142;17.962;2023-12-20T04:07:42;4.10;;;1.30;;
77018;SDS011;66044;53.142;17.962;2023-12-20T04:10:08;4.80;;;1.40;;
77018;SDS011;66044;53.142;17.962;2023-12-20T04:12:37;5.10;;;1.30;;
77018;SDS011;66044;53.142;17.962;2023-12-20T04:15:03;5.00;;;1.40;;
77018;SDS011;66044;53.142;17.962;2023-12-20T04:17:35;6.00;;;2.00;;
77018;SDS011;66044;53.142;17.962;2023-12-20T04:20:02;5.40;;;1.70;;
77018;SDS011;66044;53.142;17.962;2023-12-20T04:22:29;5.90;;;1.80;;
77018;SDS011;66044;53.142;17.962;2023-12-20T04:24:55;6.10;;;2.00;;
77018;SDS011;66044;53.142;17.962;2023-12-20T04:27:22;7.70;;;2.50;;
77018;SDS011;66044;53.142;17.962;2023-12-20T04:29:48;6.60;;;2.00;;
77018;SDS011;66044;53.142;17.962;2023-12-20T04:32:14;5.40;;;1.80;;
77018;SDS011;66044;53.142;17.962;2023-12-20T04:34:41;6.70;;;2.10;;
77018;SDS011;66044;53.142;17.962;2023-12-20T04:37:07;7.20;;;2.20;;
77018;SDS011;66044;53.142;17.962;2023-12-20T04:39:33;8.00;;;2.30;;
77018;SDS011;66044;53.142;17.962;2023-12-20T04:42:04;7.80;;;2.10;;
77018;SDS011;66044;53.142;17.962;2023-12-20T04:44:30;5.50;;;1.70;;
77018;SDS011;66044;53.142;17.962;2023-12-20T04:46:57;8.50;;;1.90;;
77018;SDS011;66044;53.142;17.962;2023-12-20T04:49:23;7.60;;;2.20;;
77018;SDS011;66044;53.142;17.962;2023-12-20T04:51:50;6.70;;;1.80;;
77018;SDS011;66044;53.142;17.962;2023-12-20T04:54:16;5.50;;;1.60;;
77018;SDS011;66044;53.142;17.962;2023-12-20T04:56:42;6.40;;;1.80;;
77018;SDS011;66044;53.142;17.962;2023-12-20T04:59:09;8.20;;;2.70;;
77018;SDS011;66044;53.142;17.962;2023-12-20T05:01:36;6.30;;;1.60;;
77018;SDS011;66044;53.142;17.962;2023-12-20T05:04:03;6.60;;;2.00;;
77018;SDS011;66044;53.142;17.962;2023-12-20T05:06:30;7.60;;;1.70;;
77018;SDS011;66044;53.142;17.962;2023-12-20T05:08:56;6.50;;;2.00;;
77018;SDS011;66044;53.142;17.962;2023-12-20T05:11:22;6.70;;;1.70;;
77018;SDS011;66044;53.142;17.962;2023-12-20T05:13:49;5.50;;;1.70;;
77018;SDS011;66044;53.142;17.962;2023-12-20T05:16:15;7.60;;;2.20;;
77018;SDS011;66044;53.142;17.962;2023-12-20T05:18:44;6.00;;;2.00;;
77018;SDS011;66044;53.142;17.962;2023-12-20T05:21:11;6.50;;;1.80;;
77018;SDS011;66044;53.142;17.962;2023-12-20T05:23:38;6.10;;;1.60;;
77018;SDS011;66044;53.142;17.962;2023-12-20T05:26:04;6.70;;;2.00;;
77018;SDS011;66044;53.142;17.962;2023-12-20T05:28:31;5.60;;;1.90;;
77018;SDS011;66044;53.142;17.962;2023-12-20T05:30:57;6.90;;;2.30;;
77018;SDS011;66044;53.142;17.962;2023-12-20T05:33:24;7.00;;;2.00;;
77018;SDS011;66044;53.142;17.962;2023-12-20T05:35:50;6.10;;;1.80;;
77018;SDS011;66044;53.142;17.962;2023-12-20T05:38:17;5.70;;;1.90;;
77018;SDS011;66044;53.142;17.962;2023-12-20T05:40:45;6.70;;;2.10;;
77018;SDS011;66044;53.142;17.962;2023-12-20T05:43:12;8.00;;;2.30;;
77018;SDS011;66044;53.142;17.962;2023-12-20T05:45:38;6.80;;;2.30;;
77018;SDS011;66044;53.142;17.962;2023-12-20T05:48:05;7.10;;;2.10;;
77018;SDS011;66044;53.142;17.962;2023-12-20T05:50:32;5.80;;;1.90;;
77018;SDS011;66044;53.142;17.962;2023-12-20T05:52:58;6.10;;;2.20;;
77018;SDS011;66044;53.142;17.962;2023-12-20T05:55:24;8.10;;;2.90;;
77018;SDS011;66044;53.142;17.962;2023-12-20T05:57:51;8.00;;;3.20;;
77018;SDS011;66044;53.142;17.962;2023-12-20T06:00:18;8.40;;;3.20;;
77018;SDS011;66044;53.142;17.962;2023-12-20T06:02:44;8.90;;;3.80;;
77018;SDS011;66044;53.142;17.962;2023-12-20T06:05:11;9.90;;;4.10;;
77018;SDS011;66044;53.142;17.962;2023-12-20T06:07:38;9.80;;;4.00;;
77018;SDS011;66044;53.142;17.962;2023-12-20T06:10:05;12.60;;;5.10;;
77018;SDS011;66044;53.142;17.962;2023-12-20T06:12:32;11.20;;;4.60;;
77018;SDS011;66044;53.142;17.962;2023-12-20T06:15:02;10.50;;;4.50;;
77018;SDS011;66044;53.142;17.962;2023-12-20T06:17:29;12.00;;;3.80;;
77018;SDS011;66044;53.142;17.962;2023-12-20T06:19:57;9.60;;;3.40;;
77018;SDS011;66044;53.142;17.962;2023-12-20T06:22:23;10.10;;;3.40;;
77018;SDS011;66044;53.142;17.962;2023-12-20T06:24:50;8.10;;;3.30;;
77018;SDS011;66044;53.142;17.962;2023-12-20T06:27:16;7.70;;;3.40;;
77018;SDS011;66044;53.142;17.962;2023-12-20T06:29:43;10.50;;;4.00;;
77018;SDS011;66044;53.142;17.962;2023-12-20T06:32:11;8.90;;;2.90;;
77018;SDS011;66044;53.142;17.962;2023-12-20T06:34:37;9.00;;;3.90;;
77018;SDS011;66044;53.142;17.962;2023-12-20T06:37:04;10.50;;;4.50;;
77018;SDS011;66044;53.142;17.962;2023-12-20T06:39:34;13.30;;;4.70;;
77018;SDS011;66044;53.142;17.962;2023-12-20T06:42:01;12.10;;;5.20;;
77018;SDS011;66044;53.142;17.962;2023-12-20T06:44:27;11.60;;;5.50;;
77018;SDS011;66044;53.142;17.962;2023-12-20T06:46:54;13.40;;;5.40;;
77018;SDS011;66044;53.142;17.962;2023-12-20T06:49:20;12.30;;;4.80;;
77018;SDS011;66044;53.142;17.962;2023-12-20T06:51:47;11.30;;;5.40;;
77018;SDS011;66044;53.142;17.962;2023-12-20T06:54:13;12.40;;;5.30;;
77018;SDS011;66044;53.142;17.962;2023-12-20T06:56:40;11.60;;;5.80;;
77018;SDS011;66044;53.142;17.962;2023-12-20T06:59:07;13.20;;;6.90;;
77018;SDS011;66044;53.142;17.962;2023-12-20T07:01:34;11.60;;;5.30;;
77018;SDS011;66044;53.142;17.962;2023-12-20T07:04:00;11.10;;;5.30;;
77018;SDS011;66044;53.142;17.962;2023-12-20T07:06:26;13.20;;;6.20;;
77018;SDS011;66044;53.142;17.962;2023-12-20T07:08:53;12.10;;;6.00;;
77018;SDS011;66044;53.142;17.962;2023-12-20T07:11:19;12.50;;;5.40;;
77018;SDS011;66044;53.142;17.962;2023-12-20T07:13:46;12.20;;;5.40;;
77018;SDS011;66044;53.142;17.962;2023-12-20T07:16:12;13.80;;;5.80;;
77018;SDS011;66044;53.142;17.962;2023-12-20T07:18:39;10.50;;;5.50;;
77018;SDS011;66044;53.142;17.962;2023-12-20T07:21:05;10.30;;;5.50;;
77018;SDS011;66044;53.142;17.962;2023-12-20T07:23:34;13.60;;;6.30;;
77018;SDS011;66044;53.142;17.962;2023-12-20T07:26:00;13.40;;;6.80;;
77018;SDS011;66044;53.142;17.962;2023-12-20T07:28:27;13.90;;;6.80;;
77018;SDS011;66044;53.142;17.962;2023-12-20T07:30:53;14.60;;;8.10;;
77018;SDS011;66044;53.142;17.962;2023-12-20T07:33:20;14.40;;;7.00;;
77018;SDS011;66044;53.142;17.962;2023-12-20T07:35:46;16.70;;;8.40;;
77018;SDS011;66044;53.142;17.962;2023-12-20T07:38:12;16.40;;;8.60;;
77018;SDS011;66044;53.142;17.962;2023-12-20T07:40:39;14.40;;;8.80;;
77018;SDS011;66044;53.142;17.962;2023-12-20T07:43:05;22.20;;;11.50;;
77018;SDS011;66044;53.142;17.962;2023-12-20T07:45:32;25.00;;;12.20;;
77018;SDS011;66044;53.142;17.962;2023-12-20T07:47:58;18.50;;;10.00;;
77018;SDS011;66044;53.142;17.962;2023-12-20T07:50:25;14.10;;;8.00;;
77018;SDS011;66044;53.142;17.962;2023-12-20T07:52:52;13.60;;;8.10;;
77018;SDS011;66044;53.142;17.962;2023-12-20T07:55:20;13.70;;;8.40;;
77018;SDS011;66044;53.142;17.962;2023-12-20T07:57:46;14.40;;;9.50;;
77018;SDS011;66044;53.142;17.962;2023-12-20T08:00:13;14.20;;;8.50;;
77018;SDS011;66044;53.142;17.962;2023-12-20T08:02:40;15.60;;;7.40;;
77018;SDS011;66044;53.142;17.962;2023-12-20T08:05:06;12.50;;;6.80;;
77018;SDS011;66044;53.142;17.962;2023-12-20T08:07:33;13.30;;;6.30;;
77018;SDS011;66044;53.142;17.962;2023-12-20T08:09:59;13.10;;;5.90;;
77018;SDS011;66044;53.142;17.962;2023-12-20T08:12:26;10.20;;;5.90;;
77018;SDS011;66044;53.142;17.962;2023-12-20T08:14:54;12.00;;;7.00;;
77018;SDS011;66044;53.142;17.962;2023-12-20T08:17:21;10.80;;;5.20;;
77018;SDS011;66044;53.142;17.962;2023-12-20T08:19:47;9.70;;;4.70;;
77018;SDS011;66044;53.142;17.962;2023-12-20T08:22:13;10.60;;;5.20;;
77018;SDS011;66044;53.142;17.962;2023-12-20T08:24:40;11.20;;;5.60;;
77018;SDS011;66044;53.142;17.962;2023-12-20T08:27:06;10.80;;;5.60;;
77018;SDS011;66044;53.142;17.962;2023-12-20T08:29:33;13.60;;;5.90;;
77018;SDS011;66044;53.142;17.962;2023-12-20T08:31:59;15.70;;;6.60;;
77018;SDS011;66044;53.142;17.962;2023-12-20T08:34:26;13.70;;;5.80;;
77018;SDS011;66044;53.142;17.962;2023-12-20T08:36:53;12.10;;;6.10;;
77018;SDS011;66044;53.142;17.962;2023-12-20T08:39:19;9.50;;;4.10;;
77018;SDS011;66044;53.142;17.962;2023-12-20T08:41:46;10.00;;;4.40;;
77018;SDS011;66044;53.142;17.962;2023-12-20T08:44:12;13.00;;;4.90;;
77018;SDS011;66044;53.142;17.962;2023-12-20T08:46:39;10.80;;;5.90;;
77018;SDS011;66044;53.142;17.962;2023-12-20T08:49:05;9.30;;;4.40;;
77018;SDS011;66044;53.142;17.962;2023-12-20T08:51:32;17.00;;;5.80;;
77018;SDS011;66044;53.142;17.962;2023-12-20T08:53:59;18.30;;;7.20;;
77018;SDS011;66044;53.142;17.962;2023-12-20T08:56:26;18.60;;;5.80;;
77018;SDS011;66044;53.142;17.962;2023-12-20T08:58:52;10.10;;;4.40;;
77018;SDS011;66044;53.142;17.962;2023-12-20T09:01:19;9.30;;;5.10;;
77018;SDS011;66044;53.142;17.962;2023-12-20T09:03:45;11.60;;;5.70;;
77018;SDS011;66044;53.142;17.962;2023-12-20T09:06:11;18.20;;;8.80;;
77018;SDS011;66044;53.142;17.962;2023-12-20T09:08:38;20.30;;;7.40;;
77018;SDS011;66044;53.142;17.962;2023-12-20T09:11:04;24.90;;;9.10;;
77018;SDS011;66044;53.142;17.962;2023-12-20T09:13:31;23.40;;;7.10;;
77018;SDS011;66044;53.142;17.962;2023-12-20T09:15:58;23.90;;;7.80;;
77018;SDS011;66044;53.142;17.962;2023-12-20T09:18:24;15.70;;;6.30;;
77018;SDS011;66044;53.142;17.962;2023-12-20T09:20:51;15.30;;;7.40;;
77018;SDS011;66044;53.142;17.962;2023-12-20T09:23:17;23.50;;;11.10;;
77018;SDS011;66044;53.142;17.962;2023-12-20T09:25:44;19.70;;;7.50;;
77018;SDS011;66044;53.142;17.962;2023-12-20T09:28:10;17.30;;;5.80;;
77018;SDS011;66044;53.142;17.962;2023-12-20T09:30:37;13.80;;;5.10;;
77018;SDS011;66044;53.142;17.962;2023-12-20T09:33:05;13.80;;;4.50;;
77018;SDS011;66044;53.142;17.962;2023-12-20T09:35:33;11.20;;;3.90;;
77018;SDS011;66044;53.142;17.962;2023-12-20T09:38:00;8.00;;;3.10;;
77018;SDS011;66044;53.142;17.962;2023-12-20T09:40:26;9.50;;;3.80;;
77018;SDS011;66044;53.142;17.962;2023-12-20T09:45:23;9.20;;;2.70;;
77018;SDS011;66044;53.142;17.962;2023-12-20T09:47:52;6.90;;;2.10;;
77018;SDS011;66044;53.142;17.962;2023-12-20T09:50:19;9.90;;;3.00;;
77018;SDS011;66044;53.142;17.962;2023-12-20T09:52:50;11.80;;;3.80;;
77018;SDS011;66044;53.142;17.962;2023-12-20T09:55:19;15.20;;;5.00;;
77018;SDS011;66044;53.142;17.962;2023-12-20T09:57:48;14.50;;;6.40;;
77018;SDS011;66044;53.142;17.962;2023-12-20T10:00:15;19.80;;;11.30;;
77018;SDS011;66044;53.142;17.962;2023-12-20T10:02:43;26.20;;;10.60;;
77018;SDS011;66044;53.142;17.962;2023-12-20T10:05:26;22.40;;;9.40;;
77018;SDS011;66044;53.142;17.962;2023-12-20T10:07:56;24.30;;;10.60;;
77018;SDS011;66044;53.142;17.962;2023-12-20T10:10:23;24.10;;;9.50;;
77018;SDS011;66044;53.142;17.962;2023-12-20T10:13:03;25.70;;;11.60;;
77018;SDS011;66044;53.142;17.962;2023-12-20T10:15:31;26.10;;;10.80;;
77018;SDS011;66044;53.142;17.962;2023-12-20T10:18:02;22.20;;;10.80;;
77018;SDS011;66044;53.142;17.962;2023-12-20T10:20:29;23.70;;;10.90;;
77018;SDS011;66044;53.142;17.962;2023-12-20T10:22:57;25.00;;;10.50;;
77018;SDS011;66044;53.142;17.962;2023-12-20T10:25:24;24.80;;;9.90;;
77018;SDS011;66044;53.142;17.962;2023-12-20T10:28:08;23.40;;;9.10;;
77018;SDS011;66044;53.142;17.962;2023-12-20T10:30:36;20.80;;;8.10;;
77018;SDS011;66044;53.142;17.962;2023-12-20T10:33:07;16.70;;;6.80;;
77018;SDS011;66044;53.142;17.962;2023-12-20T10:35:35;12.80;;;5.50;;
77018;SDS011;66044;53.142;17.962;2023-12-20T10:38:05;10.60;;;5.40;;
77018;SDS011;66044;53.142;17.962;2023-12-20T10:40:34;20.00;;;9.40;;
77018;SDS011;66044;53.142;17.962;2023-12-20T10:43:03;18.00;;;8.40;;
77018;SDS011;66044;53.142;17.962;2023-12-20T10:45:30;15.30;;;6.70;;
77018;SDS011;66044;53.142;17.962;2023-12-20T10:47:56;14.60;;;6.10;;
77018;SDS011;66044;53.142;17.962;2023-12-20T10:50:26;14.60;;;6.10;;
77018;SDS011;66044;53.142;17.962;2023-12-20T10:52:54;13.60;;;5.30;;
77018;SDS011;66044;53.142;17.962;2023-12-20T10:55:22;13.50;;;4.90;;
77018;SDS011;66044;53.142;17.962;2023-12-20T10:57:53;14.60;;;5.00;;
77018;SDS011;66044;53.142;17.962;2023-12-20T11:00:26;13.50;;;5.50;;
77018;SDS011;66044;53.142;17.962;2023-12-20T11:02:56;17.40;;;6.70;;
77018;SDS011;66044;53.142;17.962;2023-12-20T11:08:49;12.80;;;5.70;;
77018;SDS011;66044;53.142;17.962;2023-12-20T11:14:31;15.60;;;6.60;;
77018;SDS011;66044;53.142;17.962;2023-12-20T11:17:12;21.30;;;7.30;;
77018;SDS011;66044;53.142;17.962;2023-12-20T11:22:26;12.60;;;4.00;;
77018;SDS011;66044;53.142;17.962;2023-12-20T11:25:02;15.70;;;5.30;;
77018;SDS011;66044;53.142;17.962;2023-12-20T11:27:30;15.40;;;5.40;;
77018;SDS011;66044;53.142;17.962;2023-12-20T11:29:58;12.20;;;4.60;;
77018;SDS011;66044;53.142;17.962;2023-12-20T11:34:56;10.20;;;4.20;;
77018;SDS011;66044;53.142;17.962;2023-12-20T11:37:58;11.40;;;5.00;;
77018;SDS011;66044;53.142;17.962;2023-12-20T11:40:17;17.80;;;6.80;;
77018;SDS011;66044;53.142;17.962;2023-12-20T11:42:45;20.60;;;7.20;;
77018;SDS011;66044;53.142;17.962;2023-12-20T11:45:14;17.50;;;6.50;;
77018;SDS011;66044;53.142;17.962;2023-12-20T11:47:47;15.00;;;6.00;;
77018;SDS011;66044;53.142;17.962;2023-12-20T11:50:19;11.90;;;4.30;;
77018;SDS011;66044;53.142;17.962;2023-12-20T11:52:51;14.20;;;5.30;;
77018;SDS011;66044;53.142;17.962;2023-12-20T11:55:18;14.10;;;4.90;;
77018;SDS011;66044;53.142;17.962;2023-12-20T11:57:45;12.10;;;4.40;;
77018;SDS011;66044;53.142;17.962;2023-12-20T12:00:12;11.90;;;4.10;;
77018;SDS011;66044;53.142;17.962;2023-12-20T12:02:39;12.20;;;4.50;;
77018;SDS011;66044;53.142;17.962;2023-12-20T12:05:06;14.70;;;5.10;;
77018;SDS011;66044;53.142;17.962;2023-12-20T12:07:33;12.80;;;4.60;;
77018;SDS011;66044;53.142;17.962;2023-12-20T12:10:01;8.50;;;4.00;;
77018;SDS011;66044;53.142;17.962;2023-12-20T12:12:29;9.70;;;4.90;;
77018;SDS011;66044;53.142;17.962;2023-12-20T12:14:59;11.80;;;4.00;;
77018;SDS011;66044;53.142;17.962;2023-12-20T12:17:25;10.10;;;3.90;;
77018;SDS011;66044;53.142;17.962;2023-12-20T12:20:01;8.80;;;3.50;;
77018;SDS011;66044;53.142;17.962;2023-12-20T12:22:29;12.00;;;5.00;;
77018;SDS011;66044;53.142;17.962;2023-12-20T12:24:58;10.60;;;3.90;;
77018;SDS011;66044;53.142;17.962;2023-12-20T12:27:27;9.60;;;3.00;;
77018;SDS011;66044;53.142;17.962;2023-12-20T12:30:03;11.80;;;4.20;;
77018;SDS011;66044;53.142;17.962;2023-12-20T12:32:36;9.00;;;3.20;;
77018;SDS011;66044;53.142;17.962;2023-12-20T12:35:03;7.00;;;2.60;;
77018;SDS011;66044;53.142;17.962;2023-12-20T12:37:33;6.90;;;2.20;;
77018;SDS011;66044;53.142;17.962;2023-12-20T12:40:01;7.60;;;2.40;;
77018;SDS011;66044;53.142;17.962;2023-12-20T12:42:27;7.00;;;2.70;;
77018;SDS011;66044;53.142;17.962;2023-12-20T12:44:55;8.20;;;3.00;;
77018;SDS011;66044;53.142;17.962;2023-12-20T12:47:22;9.00;;;3.00;;
77018;SDS011;66044;53.142;17.962;2023-12-20T12:49:49;8.10;;;2.70;;
77018;SDS011;66044;53.142;17.962;2023-12-20T12:52:18;8.60;;;2.90;;
77018;SDS011;66044;53.142;17.962;2023-12-20T12:54:44;10.30;;;3.80;;
77018;SDS011;66044;53.142;17.962;2023-12-20T12:57:11;7.40;;;2.80;;
77018;SDS011;66044;53.142;17.962;2023-12-20T12:59:38;8.10;;;2.90;;
77018;SDS011;66044;53.142;17.962;2023-12-20T13:02:04;8.70;;;2.70;;
77018;SDS011;66044;53.142;17.962;2023-12-20T13:04:31;7.50;;;2.80;;
77018;SDS011;66044;53.142;17.962;2023-12-20T13:06:57;8.00;;;2.60;;
77018;SDS011;66044;53.142;17.962;2023-12-20T13:09:24;8.50;;;2.90;;
77018;SDS011;66044;53.142;17.962;2023-12-20T13:11:50;7.10;;;2.50;;
77018;SDS011;66044;53.142;17.962;2023-12-20T13:14:17;6.90;;;2.20;;
77018;SDS011;66044;53.142;17.962;2023-12-20T13:16:43;7.70;;;2.40;;
77018;SDS011;66044;53.142;17.962;2023-12-20T13:19:11;9.10;;;2.40;;
77018;SDS011;66044;53.142;17.962;2023-12-20T13:21:38;7.50;;;2.70;;
77018;SDS011;66044;53.142;17.962;2023-12-20T13:24:04;8.40;;;3.00;;
77018;SDS011;66044;53.142;17.962;2023-12-20T13:26:31;8.50;;;2.70;;
77018;SDS011;66044;53.142;17.962;2023-12-20T13:28:59;10.20;;;2.90;;
77018;SDS011;66044;53.142;17.962;2023-12-20T13:31:25;7.20;;;2.50;;
77018;SDS011;66044;53.142;17.962;2023-12-20T13:33:52;10.20;;;3.50;;
77018;SDS011;66044;53.142;17.962;2023-12-20T13:36:18;8.00;;;2.70;;
77018;SDS011;66044;53.142;17.962;2023-12-20T13:38:45;7.70;;;2.70;;
77018;SDS011;66044;53.142;17.962;2023-12-20T13:41:11;7.20;;;2.00;;
77018;SDS011;66044;53.142;17.962;2023-12-20T13:43:38;6.60;;;2.10;;
77018;SDS011;66044;53.142;17.962;2023-12-20T13:46:05;9.50;;;3.30;;
77018;SDS011;66044;53.142;17.962;2023-12-20T13:48:31;10.40;;;3.20;;
77018;SDS011;66044;53.142;17.962;2023-12-20T13:50:58;10.10;;;3.50;;
77018;SDS011;66044;53.142;17.962;2023-12-20T13:53:24;10.40;;;3.00;;
77018;SDS011;66044;53.142;17.962;2023-12-20T13:55:50;9.70;;;3.80;;
77018;SDS011;66044;53.142;17.962;2023-12-20T13:58:17;10.80;;;3.30;;
77018;SDS011;66044;53.142;17.962;2023-12-20T14:00:44;11.50;;;3.60;;
77018;SDS011;66044;53.142;17.962;2023-12-20T14:03:10;10.10;;;3.60;;
77018;SDS011;66044;53.142;17.962;2023-12-20T14:05:37;10.40;;;3.60;;
77018;SDS011;66044;53.142;17.962;2023-12-20T14:08:03;13.00;;;4.10;;
77018;SDS011;66044;53.142;17.962;2023-12-20T14:10:30;9.10;;;2.90;;
77018;SDS011;66044;53.142;17.962;2023-12-20T14:12:57;13.80;;;3.60;;
77018;SDS011;66044;53.142;17.962;2023-12-20T14:15:23;10.60;;;3.50;;
77018;SDS011;66044;53.142;17.962;2023-12-20T14:17:51;11.50;;;3.20;;
77018;SDS011;66044;53.142;17.962;2023-12-20T14:20:18;10.30;;;3.10;;
77018;SDS011;66044;53.142;17.962;2023-12-20T14:22:45;8.80;;;2.60;;
77018;SDS011;66044;53.142;17.962;2023-12-20T14:25:12;9.70;;;3.10;;
77018;SDS011;66044;53.142;17.962;2023-12-20T14:27:40;8.40;;;2.70;;
77018;SDS011;66044;53.142;17.962;2023-12-20T14:30:09;8.00;;;2.70;;
77018;SDS011;66044;53.142;17.962;2023-12-20T14:32:36;9.40;;;2.70;;
77018;SDS011;66044;53.142;17.962;2023-12-20T14:35:06;9.40;;;3.10;;
77018;SDS011;66044;53.142;17.962;2023-12-20T14:37:32;11.10;;;3.30;;
77018;SDS011;66044;53.142;17.962;2023-12-20T14:40:00;10.40;;;2.70;;
77018;SDS011;66044;53.142;17.962;2023-12-20T14:42:27;8.50;;;3.00;;